Terminal Aerodrome Forecast
Issued by NWS

Home | Current Version | Previous Version | Text Only | Print | Product List | Glossary On
Versions: 1 2 3 4 5 6 7 8 9 10 11 12 13 14
619
FTUS42 KMLB 261136
TAFSFB
TAF
KSFB 261136Z 2612/2712 00000KT P6SM FEW030 SCT250
     FM261500 10007KT P6SM SCT035 SCT060=

USA.gov is the U.S. government's official web portal to all federal, state and local government web resources and services.